sensor_id;sensor_type;location;lat;lon;timestamp;P1;durP1;ratioP1;P2;durP2;ratioP2
54947;SDS011;41113;41.882;12.530;2023-02-14T00:01:30;47.28;;;32.10;;
54947;SDS011;41113;41.882;12.530;2023-02-14T00:03:55;43.38;;;31.42;;
54947;SDS011;41113;41.882;12.530;2023-02-14T00:06:24;44.55;;;30.65;;
54947;SDS011;41113;41.882;12.530;2023-02-14T00:08:50;42.67;;;30.08;;
54947;SDS011;41113;41.882;12.530;2023-02-14T00:11:18;42.80;;;29.60;;
54947;SDS011;41113;41.882;12.530;2023-02-14T00:13:44;46.55;;;31.05;;
54947;SDS011;41113;41.882;12.530;2023-02-14T00:16:30;44.40;;;31.25;;
54947;SDS011;41113;41.882;12.530;2023-02-14T00:18:56;45.40;;;31.33;;
54947;SDS011;41113;41.882;12.530;2023-02-14T00:21:28;42.58;;;30.80;;
54947;SDS011;41113;41.882;12.530;2023-02-14T00:23:59;48.05;;;32.03;;
54947;SDS011;41113;41.882;12.530;2023-02-14T00:26:25;45.30;;;31.85;;
54947;SDS011;41113;41.882;12.530;2023-02-14T00:28:51;54.15;;;34.28;;
54947;SDS011;41113;41.882;12.530;2023-02-14T00:31:16;46.58;;;32.60;;
54947;SDS011;41113;41.882;12.530;2023-02-14T00:33:41;50.88;;;33.97;;
54947;SDS011;41113;41.882;12.530;2023-02-14T00:36:08;45.33;;;32.45;;
54947;SDS011;41113;41.882;12.530;2023-02-14T00:38:34;47.97;;;33.20;;
54947;SDS011;41113;41.882;12.530;2023-02-14T00:41:00;50.55;;;32.78;;
54947;SDS011;41113;41.882;12.530;2023-02-14T00:43:26;45.22;;;31.50;;
54947;SDS011;41113;41.882;12.530;2023-02-14T00:45:51;42.78;;;28.00;;
54947;SDS011;41113;41.882;12.530;2023-02-14T00:48:16;39.10;;;26.77;;
54947;SDS011;41113;41.882;12.530;2023-02-14T00:50:42;43.30;;;29.48;;
54947;SDS011;41113;41.882;12.530;2023-02-14T00:53:09;36.15;;;24.40;;
54947;SDS011;41113;41.882;12.530;2023-02-14T00:55:35;36.20;;;25.65;;
54947;SDS011;41113;41.882;12.530;2023-02-14T00:58:00;35.35;;;25.00;;
54947;SDS011;41113;41.882;12.530;2023-02-14T01:00:25;39.15;;;25.77;;
54947;SDS011;41113;41.882;12.530;2023-02-14T01:02:51;41.47;;;26.38;;
54947;SDS011;41113;41.882;12.530;2023-02-14T01:05:16;37.13;;;26.48;;
54947;SDS011;41113;41.882;12.530;2023-02-14T01:07:42;36.38;;;25.13;;
54947;SDS011;41113;41.882;12.530;2023-02-14T01:10:07;34.53;;;24.55;;
54947;SDS011;41113;41.882;12.530;2023-02-14T01:12:32;39.65;;;26.85;;
54947;SDS011;41113;41.882;12.530;2023-02-14T01:14:58;40.53;;;27.35;;
54947;SDS011;41113;41.882;12.530;2023-02-14T01:17:23;36.97;;;23.65;;
54947;SDS011;41113;41.882;12.530;2023-02-14T01:19:52;31.70;;;23.70;;
54947;SDS011;41113;41.882;12.530;2023-02-14T01:22:18;39.58;;;24.05;;
54947;SDS011;41113;41.882;12.530;2023-02-14T01:24:44;36.60;;;25.23;;
54947;SDS011;41113;41.882;12.530;2023-02-14T01:27:09;37.78;;;25.60;;
54947;SDS011;41113;41.882;12.530;2023-02-14T01:29:34;34.67;;;25.52;;
54947;SDS011;41113;41.882;12.530;2023-02-14T01:32:00;34.88;;;24.08;;
54947;SDS011;41113;41.882;12.530;2023-02-14T01:34:25;36.70;;;24.20;;
54947;SDS011;41113;41.882;12.530;2023-02-14T01:36:51;37.65;;;25.00;;
54947;SDS011;41113;41.882;12.530;2023-02-14T01:39:16;41.50;;;25.17;;
54947;SDS011;41113;41.882;12.530;2023-02-14T01:41:43;36.28;;;25.00;;
54947;SDS011;41113;41.882;12.530;2023-02-14T01:46:37;34.28;;;23.08;;
54947;SDS011;41113;41.882;12.530;2023-02-14T01:49:13;35.80;;;23.17;;
54947;SDS011;41113;41.882;12.530;2023-02-14T01:51:47;34.83;;;21.42;;
54947;SDS011;41113;41.882;12.530;2023-02-14T01:54:16;33.40;;;22.40;;
54947;SDS011;41113;41.882;12.530;2023-02-14T01:56:44;34.95;;;22.02;;
54947;SDS011;41113;41.882;12.530;2023-02-14T02:01:41;38.22;;;23.45;;
54947;SDS011;41113;41.882;12.530;2023-02-14T02:04:11;36.45;;;23.00;;
54947;SDS011;41113;41.882;12.530;2023-02-14T02:06:43;38.17;;;23.02;;
54947;SDS011;41113;41.882;12.530;2023-02-14T02:09:17;36.78;;;23.10;;
54947;SDS011;41113;41.882;12.530;2023-02-14T02:11:48;35.60;;;23.27;;
54947;SDS011;41113;41.882;12.530;2023-02-14T02:14:15;36.42;;;23.73;;
54947;SDS011;41113;41.882;12.530;2023-02-14T02:22:18;41.80;;;24.55;;
54947;SDS011;41113;41.882;12.530;2023-02-14T02:44:17;46.97;;;32.45;;
54947;SDS011;41113;41.882;12.530;2023-02-14T02:52:40;44.83;;;31.58;;
54947;SDS011;41113;41.882;12.530;2023-02-14T02:58:40;43.70;;;29.60;;
54947;SDS011;41113;41.882;12.530;2023-02-14T03:01:31;40.50;;;29.55;;
54947;SDS011;41113;41.882;12.530;2023-02-14T03:03:59;43.72;;;30.42;;
54947;SDS011;41113;41.882;12.530;2023-02-14T03:06:46;45.03;;;30.45;;
54947;SDS011;41113;41.882;12.530;2023-02-14T03:11:56;41.22;;;29.02;;
54947;SDS011;41113;41.882;12.530;2023-02-14T03:14:55;49.22;;;30.15;;
54947;SDS011;41113;41.882;12.530;2023-02-14T03:17:35;41.15;;;28.80;;
54947;SDS011;41113;41.882;12.530;2023-02-14T03:23:03;39.63;;;28.73;;
54947;SDS011;41113;41.882;12.530;2023-02-14T03:34:10;43.47;;;28.95;;
54947;SDS011;41113;41.882;12.530;2023-02-14T03:36:53;41.17;;;29.17;;
54947;SDS011;41113;41.882;12.530;2023-02-14T03:42:37;37.75;;;27.55;;
54947;SDS011;41113;41.882;12.530;2023-02-14T03:45:21;44.08;;;28.27;;
54947;SDS011;41113;41.882;12.530;2023-02-14T03:47:51;41.17;;;27.45;;
54947;SDS011;41113;41.882;12.530;2023-02-14T03:50:20;41.80;;;27.45;;
54947;SDS011;41113;41.882;12.530;2023-02-14T03:52:47;42.28;;;28.83;;
54947;SDS011;41113;41.882;12.530;2023-02-14T03:55:16;45.90;;;28.67;;
54947;SDS011;41113;41.882;12.530;2023-02-14T03:57:50;39.08;;;29.13;;
54947;SDS011;41113;41.882;12.530;2023-02-14T04:00:26;44.30;;;28.73;;
54947;SDS011;41113;41.882;12.530;2023-02-14T04:02:57;40.20;;;28.75;;
54947;SDS011;41113;41.882;12.530;2023-02-14T04:05:28;38.53;;;28.98;;
54947;SDS011;41113;41.882;12.530;2023-02-14T04:07:56;41.78;;;29.67;;
54947;SDS011;41113;41.882;12.530;2023-02-14T04:10:22;43.85;;;28.88;;
54947;SDS011;41113;41.882;12.530;2023-02-14T04:12:49;42.13;;;29.58;;
54947;SDS011;41113;41.882;12.530;2023-02-14T04:15:15;47.13;;;31.13;;
54947;SDS011;41113;41.882;12.530;2023-02-14T04:17:41;42.85;;;30.08;;
54947;SDS011;41113;41.882;12.530;2023-02-14T04:20:26;41.28;;;28.02;;
54947;SDS011;41113;41.882;12.530;2023-02-14T04:22:52;40.88;;;27.60;;
54947;SDS011;41113;41.882;12.530;2023-02-14T04:25:18;42.40;;;29.73;;
54947;SDS011;41113;41.882;12.530;2023-02-14T04:27:44;40.38;;;26.95;;
54947;SDS011;41113;41.882;12.530;2023-02-14T04:30:10;45.25;;;28.92;;
54947;SDS011;41113;41.882;12.530;2023-02-14T04:32:36;41.05;;;27.70;;
54947;SDS011;41113;41.882;12.530;2023-02-14T04:35:03;39.17;;;27.58;;
54947;SDS011;41113;41.882;12.530;2023-02-14T04:37:28;42.30;;;29.05;;
54947;SDS011;41113;41.882;12.530;2023-02-14T04:39:54;42.60;;;29.27;;
54947;SDS011;41113;41.882;12.530;2023-02-14T04:42:19;40.58;;;28.42;;
54947;SDS011;41113;41.882;12.530;2023-02-14T04:44:44;41.20;;;29.27;;
54947;SDS011;41113;41.882;12.530;2023-02-14T04:47:10;40.13;;;28.58;;
54947;SDS011;41113;41.882;12.530;2023-02-14T04:49:35;38.28;;;27.67;;
54947;SDS011;41113;41.882;12.530;2023-02-14T04:52:01;42.22;;;28.75;;
54947;SDS011;41113;41.882;12.530;2023-02-14T04:54:26;38.47;;;27.38;;
54947;SDS011;41113;41.882;12.530;2023-02-14T04:56:52;37.60;;;26.73;;
54947;SDS011;41113;41.882;12.530;2023-02-14T04:59:17;38.08;;;25.95;;
54947;SDS011;41113;41.882;12.530;2023-02-14T05:01:43;41.38;;;26.50;;
54947;SDS011;41113;41.882;12.530;2023-02-14T05:04:08;37.85;;;26.30;;
54947;SDS011;41113;41.882;12.530;2023-02-14T05:06:34;37.85;;;25.77;;
54947;SDS011;41113;41.882;12.530;2023-02-14T05:09:00;38.50;;;25.90;;
54947;SDS011;41113;41.882;12.530;2023-02-14T05:11:27;38.72;;;26.33;;
54947;SDS011;41113;41.882;12.530;2023-02-14T05:13:53;35.30;;;25.10;;
54947;SDS011;41113;41.882;12.530;2023-02-14T05:16:19;34.17;;;24.63;;
54947;SDS011;41113;41.882;12.530;2023-02-14T05:18:45;38.88;;;24.67;;
54947;SDS011;41113;41.882;12.530;2023-02-14T05:21:11;38.88;;;26.75;;
54947;SDS011;41113;41.882;12.530;2023-02-14T05:23:37;34.50;;;24.05;;
54947;SDS011;41113;41.882;12.530;2023-02-14T05:26:02;35.55;;;23.15;;
54947;SDS011;41113;41.882;12.530;2023-02-14T05:28:28;38.38;;;25.65;;
54947;SDS011;41113;41.882;12.530;2023-02-14T05:30:54;36.63;;;25.20;;
54947;SDS011;41113;41.882;12.530;2023-02-14T05:33:21;38.90;;;25.00;;
54947;SDS011;41113;41.882;12.530;2023-02-14T05:35:46;35.05;;;24.20;;
54947;SDS011;41113;41.882;12.530;2023-02-14T05:38:12;34.00;;;24.52;;
54947;SDS011;41113;41.882;12.530;2023-02-14T05:40:37;33.58;;;23.75;;
54947;SDS011;41113;41.882;12.530;2023-02-14T05:43:03;36.40;;;24.55;;
54947;SDS011;41113;41.882;12.530;2023-02-14T05:45:28;38.85;;;24.08;;
54947;SDS011;41113;41.882;12.530;2023-02-14T05:47:54;35.45;;;23.67;;
54947;SDS011;41113;41.882;12.530;2023-02-14T05:50:19;37.10;;;25.50;;
54947;SDS011;41113;41.882;12.530;2023-02-14T05:52:45;36.15;;;22.90;;
54947;SDS011;41113;41.882;12.530;2023-02-14T05:55:10;36.00;;;24.45;;
54947;SDS011;41113;41.882;12.530;2023-02-14T05:57:36;38.05;;;24.48;;
54947;SDS011;41113;41.882;12.530;2023-02-14T06:00:02;31.15;;;22.23;;
54947;SDS011;41113;41.882;12.530;2023-02-14T06:02:30;33.13;;;22.20;;
54947;SDS011;41113;41.882;12.530;2023-02-14T06:04:57;38.45;;;23.92;;
54947;SDS011;41113;41.882;12.530;2023-02-14T06:07:22;32.00;;;20.90;;
54947;SDS011;41113;41.882;12.530;2023-02-14T06:09:48;33.20;;;22.17;;
54947;SDS011;41113;41.882;12.530;2023-02-14T06:12:13;37.72;;;22.55;;
54947;SDS011;41113;41.882;12.530;2023-02-14T06:14:39;31.88;;;21.13;;
54947;SDS011;41113;41.882;12.530;2023-02-14T06:17:06;33.55;;;21.70;;
54947;SDS011;41113;41.882;12.530;2023-02-14T06:19:33;31.77;;;21.75;;
54947;SDS011;41113;41.882;12.530;2023-02-14T06:21:58;36.15;;;24.38;;
54947;SDS011;41113;41.882;12.530;2023-02-14T06:24:23;35.25;;;24.55;;
54947;SDS011;41113;41.882;12.530;2023-02-14T06:26:49;35.30;;;22.27;;
54947;SDS011;41113;41.882;12.530;2023-02-14T06:29:15;32.95;;;21.60;;
54947;SDS011;41113;41.882;12.530;2023-02-14T06:31:41;33.53;;;22.60;;
54947;SDS011;41113;41.882;12.530;2023-02-14T06:34:06;32.92;;;22.33;;
54947;SDS011;41113;41.882;12.530;2023-02-14T06:36:32;35.35;;;23.17;;
54947;SDS011;41113;41.882;12.530;2023-02-14T06:38:57;32.75;;;21.25;;
54947;SDS011;41113;41.882;12.530;2023-02-14T06:41:22;32.78;;;20.60;;
54947;SDS011;41113;41.882;12.530;2023-02-14T06:43:48;34.05;;;22.23;;
54947;SDS011;41113;41.882;12.530;2023-02-14T06:46:14;29.40;;;20.13;;
54947;SDS011;41113;41.882;12.530;2023-02-14T06:48:40;28.20;;;19.50;;
54947;SDS011;41113;41.882;12.530;2023-02-14T06:51:05;30.48;;;20.48;;
54947;SDS011;41113;41.882;12.530;2023-02-14T06:53:31;32.28;;;19.95;;
54947;SDS011;41113;41.882;12.530;2023-02-14T06:55:57;29.40;;;18.85;;
54947;SDS011;41113;41.882;12.530;2023-02-14T06:58:22;27.80;;;19.00;;
54947;SDS011;41113;41.882;12.530;2023-02-14T07:00:48;33.08;;;21.17;;
54947;SDS011;41113;41.882;12.530;2023-02-14T07:03:13;33.92;;;21.00;;
54947;SDS011;41113;41.882;12.530;2023-02-14T07:05:39;35.80;;;21.27;;
54947;SDS011;41113;41.882;12.530;2023-02-14T07:08:05;29.85;;;20.58;;
54947;SDS011;41113;41.882;12.530;2023-02-14T07:10:34;32.17;;;21.58;;
54947;SDS011;41113;41.882;12.530;2023-02-14T07:12:59;36.33;;;21.02;;
54947;SDS011;41113;41.882;12.530;2023-02-14T07:15:25;32.00;;;20.70;;
54947;SDS011;41113;41.882;12.530;2023-02-14T07:17:50;30.38;;;20.15;;
54947;SDS011;41113;41.882;12.530;2023-02-14T07:20:16;30.08;;;19.48;;
54947;SDS011;41113;41.882;12.530;2023-02-14T07:22:42;31.50;;;21.33;;
54947;SDS011;41113;41.882;12.530;2023-02-14T07:25:08;28.50;;;19.42;;
54947;SDS011;41113;41.882;12.530;2023-02-14T07:27:34;31.42;;;19.60;;
54947;SDS011;41113;41.882;12.530;2023-02-14T07:30:01;30.23;;;19.60;;
54947;SDS011;41113;41.882;12.530;2023-02-14T07:32:27;29.85;;;19.73;;
54947;SDS011;41113;41.882;12.530;2023-02-14T07:34:52;31.83;;;19.42;;
54947;SDS011;41113;41.882;12.530;2023-02-14T07:37:18;35.33;;;20.80;;
54947;SDS011;41113;41.882;12.530;2023-02-14T07:39:43;30.05;;;19.52;;
54947;SDS011;41113;41.882;12.530;2023-02-14T07:42:09;33.63;;;20.48;;
54947;SDS011;41113;41.882;12.530;2023-02-14T07:44:35;33.28;;;20.17;;
54947;SDS011;41113;41.882;12.530;2023-02-14T07:47:05;34.60;;;20.27;;
54947;SDS011;41113;41.882;12.530;2023-02-14T07:49:31;30.55;;;18.67;;
54947;SDS011;41113;41.882;12.530;2023-02-14T07:51:57;30.23;;;19.45;;
54947;SDS011;41113;41.882;12.530;2023-02-14T07:54:22;28.50;;;18.40;;
54947;SDS011;41113;41.882;12.530;2023-02-14T07:56:48;33.60;;;19.70;;
54947;SDS011;41113;41.882;12.530;2023-02-14T07:59:15;30.33;;;20.52;;
54947;SDS011;41113;41.882;12.530;2023-02-14T08:01:40;25.27;;;18.42;;
54947;SDS011;41113;41.882;12.530;2023-02-14T08:04:06;28.65;;;18.45;;
54947;SDS011;41113;41.882;12.530;2023-02-14T08:06:31;30.75;;;20.08;;
54947;SDS011;41113;41.882;12.530;2023-02-14T08:08:57;33.92;;;19.67;;
54947;SDS011;41113;41.882;12.530;2023-02-14T08:11:22;27.23;;;17.95;;
54947;SDS011;41113;41.882;12.530;2023-02-14T08:14:06;28.27;;;18.60;;
54947;SDS011;41113;41.882;12.530;2023-02-14T08:16:31;27.67;;;18.38;;
54947;SDS011;41113;41.882;12.530;2023-02-14T08:18:58;34.05;;;20.05;;
54947;SDS011;41113;41.882;12.530;2023-02-14T08:21:24;33.13;;;18.58;;
54947;SDS011;41113;41.882;12.530;2023-02-14T08:23:49;31.65;;;19.27;;
54947;SDS011;41113;41.882;12.530;2023-02-14T08:26:15;32.25;;;19.08;;
54947;SDS011;41113;41.882;12.530;2023-02-14T08:28:41;32.35;;;19.95;;
54947;SDS011;41113;41.882;12.530;2023-02-14T08:31:07;29.95;;;19.75;;
54947;SDS011;41113;41.882;12.530;2023-02-14T08:33:33;30.45;;;18.20;;
54947;SDS011;41113;41.882;12.530;2023-02-14T08:35:58;24.90;;;17.65;;
54947;SDS011;41113;41.882;12.530;2023-02-14T08:38:24;30.13;;;18.80;;
54947;SDS011;41113;41.882;12.530;2023-02-14T08:40:49;28.48;;;18.63;;
54947;SDS011;41113;41.882;12.530;2023-02-14T08:43:15;26.10;;;17.85;;
54947;SDS011;41113;41.882;12.530;2023-02-14T08:45:41;27.75;;;19.58;;
54947;SDS011;41113;41.882;12.530;2023-02-14T08:48:08;25.08;;;16.75;;
54947;SDS011;41113;41.882;12.530;2023-02-14T08:50:35;25.35;;;17.67;;
54947;SDS011;41113;41.882;12.530;2023-02-14T08:53:04;29.73;;;18.77;;
54947;SDS011;41113;41.882;12.530;2023-02-14T08:55:34;29.55;;;17.67;;
54947;SDS011;41113;41.882;12.530;2023-02-14T08:58:00;30.67;;;17.63;;
54947;SDS011;41113;41.882;12.530;2023-02-14T09:00:25;28.08;;;17.88;;
54947;SDS011;41113;41.882;12.530;2023-02-14T09:02:51;30.02;;;18.52;;
54947;SDS011;41113;41.882;12.530;2023-02-14T09:05:18;31.95;;;19.48;;
54947;SDS011;41113;41.882;12.530;2023-02-14T09:07:44;33.00;;;21.27;;
54947;SDS011;41113;41.882;12.530;2023-02-14T09:10:10;30.70;;;18.98;;
54947;SDS011;41113;41.882;12.530;2023-02-14T09:12:37;30.13;;;19.70;;
54947;SDS011;41113;41.882;12.530;2023-02-14T09:15:04;28.07;;;18.93;;
54947;SDS011;41113;41.882;12.530;2023-02-14T09:17:30;30.77;;;20.30;;
54947;SDS011;41113;41.882;12.530;2023-02-14T09:19:55;28.80;;;18.10;;
54947;SDS011;41113;41.882;12.530;2023-02-14T09:22:20;29.48;;;19.65;;
54947;SDS011;41113;41.882;12.530;2023-02-14T09:24:46;26.45;;;18.25;;
54947;SDS011;41113;41.882;12.530;2023-02-14T09:27:11;29.15;;;18.85;;
54947;SDS011;41113;41.882;12.530;2023-02-14T09:29:38;26.45;;;17.88;;
54947;SDS011;41113;41.882;12.530;2023-02-14T09:32:03;26.80;;;17.50;;
54947;SDS011;41113;41.882;12.530;2023-02-14T09:34:29;25.98;;;17.67;;
54947;SDS011;41113;41.882;12.530;2023-02-14T09:36:57;29.08;;;17.85;;
54947;SDS011;41113;41.882;12.530;2023-02-14T09:39:41;26.38;;;16.88;;
54947;SDS011;41113;41.882;12.530;2023-02-14T09:42:08;30.50;;;18.33;;
54947;SDS011;41113;41.882;12.530;2023-02-14T09:44:56;27.90;;;16.92;;
54947;SDS011;41113;41.882;12.530;2023-02-14T09:50:09;27.95;;;16.60;;
54947;SDS011;41113;41.882;12.530;2023-02-14T09:52:42;23.35;;;15.98;;
54947;SDS011;41113;41.882;12.530;2023-02-14T09:55:12;25.08;;;15.60;;
54947;SDS011;41113;41.882;12.530;2023-02-14T09:57:58;30.70;;;17.70;;
54947;SDS011;41113;41.882;12.530;2023-02-14T10:03:31;27.98;;;17.90;;
54947;SDS011;41113;41.882;12.530;2023-02-14T10:11:49;24.30;;;16.70;;
54947;SDS011;41113;41.882;12.530;2023-02-14T10:14:22;25.17;;;17.00;;
54947;SDS011;41113;41.882;12.530;2023-02-14T10:16:57;25.73;;;16.55;;
54947;SDS011;41113;41.882;12.530;2023-02-14T10:19:38;26.90;;;16.33;;
54947;SDS011;41113;41.882;12.530;2023-02-14T10:22:09;25.92;;;16.05;;
54947;SDS011;41113;41.882;12.530;2023-02-14T10:24:50;26.40;;;16.75;;
54947;SDS011;41113;41.882;12.530;2023-02-14T10:27:37;23.17;;;15.90;;
54947;SDS011;41113;41.882;12.530;2023-02-14T10:32:44;28.90;;;17.35;;
54947;SDS011;41113;41.882;12.530;2023-02-14T10:35:15;25.60;;;16.92;;
54947;SDS011;41113;41.882;12.530;2023-02-14T10:46:39;23.85;;;16.02;;
54947;SDS011;41113;41.882;12.530;2023-02-14T10:52:33;22.40;;;15.32;;
54947;SDS011;41113;41.882;12.530;2023-02-14T10:55:11;21.50;;;14.37;;
54947;SDS011;41113;41.882;12.530;2023-02-14T10:57:50;22.80;;;14.18;;
54947;SDS011;41113;41.882;12.530;2023-02-14T11:02:51;23.60;;;14.20;;
54947;SDS011;41113;41.882;12.530;2023-02-14T11:07:49;23.50;;;13.68;;
54947;SDS011;41113;41.882;12.530;2023-02-14T11:10:14;20.00;;;13.13;;
54947;SDS011;41113;41.882;12.530;2023-02-14T11:12:40;19.55;;;13.50;;
54947;SDS011;41113;41.882;12.530;2023-02-14T11:17:34;23.73;;;12.52;;
54947;SDS011;41113;41.882;12.530;2023-02-14T11:20:04;21.50;;;12.23;;
54947;SDS011;41113;41.882;12.530;2023-02-14T11:22:46;18.65;;;12.10;;
54947;SDS011;41113;41.882;12.530;2023-02-14T11:25:22;20.27;;;12.50;;
54947;SDS011;41113;41.882;12.530;2023-02-14T11:28:02;18.38;;;12.00;;
54947;SDS011;41113;41.882;12.530;2023-02-14T11:30:34;18.70;;;10.75;;
54947;SDS011;41113;41.882;12.530;2023-02-14T11:32:59;19.65;;;11.95;;
54947;SDS011;41113;41.882;12.530;2023-02-14T11:35:26;16.52;;;10.65;;
54947;SDS011;41113;41.882;12.530;2023-02-14T11:37:58;22.88;;;11.93;;
54947;SDS011;41113;41.882;12.530;2023-02-14T11:40:33;16.35;;;9.93;;
54947;SDS011;41113;41.882;12.530;2023-02-14T11:43:45;16.55;;;9.93;;
54947;SDS011;41113;41.882;12.530;2023-02-14T11:51:25;17.03;;;9.20;;
54947;SDS011;41113;41.882;12.530;2023-02-14T11:53:53;16.95;;;9.65;;
54947;SDS011;41113;41.882;12.530;2023-02-14T11:56:24;17.58;;;9.75;;
54947;SDS011;41113;41.882;12.530;2023-02-14T11:59:09;18.48;;;10.32;;
54947;SDS011;41113;41.882;12.530;2023-02-14T12:01:39;19.05;;;10.50;;
54947;SDS011;41113;41.882;12.530;2023-02-14T12:04:11;19.48;;;10.95;;
54947;SDS011;41113;41.882;12.530;2023-02-14T12:06:39;18.38;;;9.80;;
54947;SDS011;41113;41.882;12.530;2023-02-14T12:14:28;17.55;;;9.23;;
54947;SDS011;41113;41.882;12.530;2023-02-14T12:22:07;17.25;;;10.80;;
54947;SDS011;41113;41.882;12.530;2023-02-14T12:27:18;18.48;;;10.07;;
54947;SDS011;41113;41.882;12.530;2023-02-14T12:30:16;18.15;;;11.63;;
54947;SDS011;41113;41.882;12.530;2023-02-14T12:32:48;20.27;;;10.27;;
54947;SDS011;41113;41.882;12.530;2023-02-14T12:40:45;17.58;;;10.98;;
54947;SDS011;41113;41.882;12.530;2023-02-14T12:44:05;20.10;;;10.23;;
54947;SDS011;41113;41.882;12.530;2023-02-14T12:49:25;17.20;;;11.07;;
54947;SDS011;41113;41.882;12.530;2023-02-14T12:58:28;15.48;;;8.93;;
54947;SDS011;41113;41.882;12.530;2023-02-14T13:06:08;16.83;;;10.10;;
54947;SDS011;41113;41.882;12.530;2023-02-14T13:17:36;20.15;;;10.02;;
54947;SDS011;41113;41.882;12.530;2023-02-14T13:20:24;17.05;;;9.48;;
54947;SDS011;41113;41.882;12.530;2023-02-14T13:22:55;18.17;;;10.20;;
54947;SDS011;41113;41.882;12.530;2023-02-14T13:25:28;16.45;;;9.45;;
54947;SDS011;41113;41.882;12.530;2023-02-14T13:27:58;17.20;;;9.50;;
54947;SDS011;41113;41.882;12.530;2023-02-14T13:30:29;15.60;;;9.18;;
54947;SDS011;41113;41.882;12.530;2023-02-14T13:32:57;20.52;;;10.80;;
54947;SDS011;41113;41.882;12.530;2023-02-14T13:35:27;20.42;;;10.32;;
54947;SDS011;41113;41.882;12.530;2023-02-14T13:37:56;18.25;;;10.18;;
54947;SDS011;41113;41.882;12.530;2023-02-14T13:40:25;17.63;;;9.75;;
54947;SDS011;41113;41.882;12.530;2023-02-14T13:42:53;16.70;;;9.70;;
54947;SDS011;41113;41.882;12.530;2023-02-14T13:58:47;18.50;;;9.77;;
54947;SDS011;41113;41.882;12.530;2023-02-14T14:01:41;16.23;;;9.07;;
54947;SDS011;41113;41.882;12.530;2023-02-14T14:12:29;17.50;;;10.32;;
54947;SDS011;41113;41.882;12.530;2023-02-14T14:17:31;17.42;;;10.13;;
54947;SDS011;41113;41.882;12.530;2023-02-14T14:19:59;17.48;;;9.65;;
54947;SDS011;41113;41.882;12.530;2023-02-14T14:22:26;20.58;;;11.13;;
54947;SDS011;41113;41.882;12.530;2023-02-14T14:27:23;22.02;;;12.65;;
54947;SDS011;41113;41.882;12.530;2023-02-14T14:29:54;24.77;;;12.20;;
54947;SDS011;41113;41.882;12.530;2023-02-14T14:32:30;21.30;;;11.32;;
54947;SDS011;41113;41.882;12.530;2023-02-14T14:34:58;19.75;;;12.25;;
54947;SDS011;41113;41.882;12.530;2023-02-14T14:37:27;22.25;;;10.85;;
54947;SDS011;41113;41.882;12.530;2023-02-14T14:39:56;19.38;;;11.80;;
54947;SDS011;41113;41.882;12.530;2023-02-14T14:42:24;21.65;;;12.75;;
54947;SDS011;41113;41.882;12.530;2023-02-14T14:45:35;20.83;;;11.80;;
54947;SDS011;41113;41.882;12.530;2023-02-14T14:47:49;19.45;;;10.63;;
54947;SDS011;41113;41.882;12.530;2023-02-14T14:50:18;21.60;;;11.95;;
54947;SDS011;41113;41.882;12.530;2023-02-14T14:52:48;21.75;;;11.00;;
54947;SDS011;41113;41.882;12.530;2023-02-14T14:55:17;15.38;;;9.63;;
54947;SDS011;41113;41.882;12.530;2023-02-14T14:57:53;21.13;;;10.85;;
54947;SDS011;41113;41.882;12.530;2023-02-14T15:00:24;18.45;;;10.15;;
54947;SDS011;41113;41.882;12.530;2023-02-14T15:02:59;19.48;;;11.20;;
54947;SDS011;41113;41.882;12.530;2023-02-14T15:05:40;17.70;;;8.60;;
54947;SDS011;41113;41.882;12.530;2023-02-14T15:08:19;19.23;;;9.82;;
54947;SDS011;41113;41.882;12.530;2023-02-14T15:11:02;15.00;;;8.85;;
54947;SDS011;41113;41.882;12.530;2023-02-14T15:13:34;16.13;;;8.82;;
54947;SDS011;41113;41.882;12.530;2023-02-14T15:16:40;16.73;;;8.85;;
54947;SDS011;41113;41.882;12.530;2023-02-14T15:22:03;16.02;;;8.60;;
54947;SDS011;41113;41.882;12.530;2023-02-14T15:24:30;17.05;;;8.27;;
54947;SDS011;41113;41.882;12.530;2023-02-14T15:26:59;16.10;;;8.05;;
54947;SDS011;41113;41.882;12.530;2023-02-14T15:29:27;17.05;;;8.15;;
54947;SDS011;41113;41.882;12.530;2023-02-14T15:31:58;14.13;;;7.32;;
54947;SDS011;41113;41.882;12.530;2023-02-14T15:34:29;13.20;;;6.97;;
54947;SDS011;41113;41.882;12.530;2023-02-14T15:36:56;14.57;;;8.38;;
54947;SDS011;41113;41.882;12.530;2023-02-14T15:39:39;15.35;;;8.18;;
54947;SDS011;41113;41.882;12.530;2023-02-14T15:47:50;13.45;;;6.47;;
54947;SDS011;41113;41.882;12.530;2023-02-14T15:50:18;16.92;;;7.72;;
54947;SDS011;41113;41.882;12.530;2023-02-14T15:55:50;24.25;;;14.55;;
54947;SDS011;41113;41.882;12.530;2023-02-14T15:58:23;22.38;;;11.52;;
54947;SDS011;41113;41.882;12.530;2023-02-14T16:00:53;16.58;;;8.77;;
54947;SDS011;41113;41.882;12.530;2023-02-14T16:03:21;14.88;;;9.10;;
54947;SDS011;41113;41.882;12.530;2023-02-14T16:08:32;15.70;;;8.55;;
54947;SDS011;41113;41.882;12.530;2023-02-14T16:11:05;15.05;;;7.63;;
54947;SDS011;41113;41.882;12.530;2023-02-14T16:13:37;15.07;;;8.13;;
54947;SDS011;41113;41.882;12.530;2023-02-14T16:16:06;16.95;;;7.85;;
54947;SDS011;41113;41.882;12.530;2023-02-14T16:18:46;14.52;;;7.20;;
54947;SDS011;41113;41.882;12.530;2023-02-14T16:21:15;17.23;;;7.07;;
54947;SDS011;41113;41.882;12.530;2023-02-14T16:23:47;15.70;;;7.28;;
54947;SDS011;41113;41.882;12.530;2023-02-14T16:26:32;17.08;;;7.85;;
54947;SDS011;41113;41.882;12.530;2023-02-14T16:29:00;14.35;;;7.78;;
54947;SDS011;41113;41.882;12.530;2023-02-14T16:31:27;15.80;;;7.32;;
54947;SDS011;41113;41.882;12.530;2023-02-14T16:33:54;15.50;;;6.93;;
54947;SDS011;41113;41.882;12.530;2023-02-14T16:36:29;16.30;;;8.10;;
54947;SDS011;41113;41.882;12.530;2023-02-14T16:38:57;15.07;;;6.85;;
54947;SDS011;41113;41.882;12.530;2023-02-14T16:43:52;17.70;;;8.77;;
54947;SDS011;41113;41.882;12.530;2023-02-14T16:46:20;18.35;;;9.05;;
54947;SDS011;41113;41.882;12.530;2023-02-14T16:48:50;16.33;;;9.18;;
54947;SDS011;41113;41.882;12.530;2023-02-14T16:51:38;15.85;;;8.52;;
54947;SDS011;41113;41.882;12.530;2023-02-14T16:54:07;86.63;;;60.15;;
54947;SDS011;41113;41.882;12.530;2023-02-14T16:56:52;62.15;;;38.55;;
54947;SDS011;41113;41.882;12.530;2023-02-14T16:59:21;100.75;;;52.38;;
54947;SDS011;41113;41.882;12.530;2023-02-14T17:01:46;274.60;;;124.80;;
54947;SDS011;41113;41.882;12.530;2023-02-14T17:04:12;223.32;;;106.47;;
54947;SDS011;41113;41.882;12.530;2023-02-14T17:06:39;269.77;;;169.57;;
54947;SDS011;41113;41.882;12.530;2023-02-14T17:09:29;144.30;;;89.60;;
54947;SDS011;41113;41.882;12.530;2023-02-14T17:12:01;129.60;;;77.32;;
54947;SDS011;41113;41.882;12.530;2023-02-14T17:14:31;117.13;;;78.43;;
54947;SDS011;41113;41.882;12.530;2023-02-14T17:17:01;97.40;;;65.80;;
54947;SDS011;41113;41.882;12.530;2023-02-14T17:19:30;725.00;;;405.33;;
54947;SDS011;41113;41.882;12.530;2023-02-14T17:21:56;388.00;;;227.48;;
54947;SDS011;41113;41.882;12.530;2023-02-14T17:24:23;637.00;;;336.35;;
54947;SDS011;41113;41.882;12.530;2023-02-14T17:26:48;267.20;;;136.73;;